sensor_id;sensor_type;location;lat;lon;timestamp;pressure;altitude;pressure_sealevel;temperature;humidity
21011;BME280;10663;42.714;23.274;2023-02-13T00:00:06;96538.53;;;-1.72;100.00
21011;BME280;10663;42.714;23.274;2023-02-13T00:01:38;96536.34;;;-1.67;100.00
21011;BME280;10663;42.714;23.274;2023-02-13T00:03:09;96543.59;;;-1.70;100.00
21011;BME280;10663;42.714;23.274;2023-02-13T00:04:40;96539.34;;;-1.71;100.00
21011;BME280;10663;42.714;23.274;2023-02-13T00:06:12;96538.53;;;-1.72;100.00
21011;BME280;10663;42.714;23.274;2023-02-13T00:07:43;96544.84;;;-1.74;100.00
21011;BME280;10663;42.714;23.274;2023-02-13T00:09:14;96541.69;;;-1.68;100.00
21011;BME280;10663;42.714;23.274;2023-02-13T00:10:46;96536.72;;;-1.62;100.00
21011;BME280;10663;42.714;23.274;2023-02-13T00:12:17;96541.50;;;-1.57;100.00
21011;BME280;10663;42.714;23.274;2023-02-13T00:13:48;96533.03;;;-1.59;100.00
21011;BME280;10663;42.714;23.274;2023-02-13T00:15:19;96538.91;;;-1.57;100.00
21011;BME280;10663;42.714;23.274;2023-02-13T00:16:49;96543.63;;;-1.53;100.00
21011;BME280;10663;42.714;23.274;2023-02-13T00:18:20;96541.69;;;-1.41;100.00
21011;BME280;10663;42.714;23.274;2023-02-13T00:19:51;96544.97;;;-1.39;100.00
21011;BME280;10663;42.714;23.274;2023-02-13T00:21:22;96545.78;;;-1.38;100.00
21011;BME280;10663;42.714;23.274;2023-02-13T00:22:53;96542.22;;;-1.37;100.00
21011;BME280;10663;42.714;23.274;2023-02-13T00:24:24;96539.56;;;-1.28;100.00
21011;BME280;10663;42.714;23.274;2023-02-13T00:25:54;96533.38;;;-1.27;100.00
21011;BME280;10663;42.714;23.274;2023-02-13T00:27:25;96536.16;;;-1.28;100.00
21011;BME280;10663;42.714;23.274;2023-02-13T00:28:56;96543.94;;;-1.28;100.00
21011;BME280;10663;42.714;23.274;2023-02-13T00:30:28;96544.03;;;-1.20;100.00
21011;BME280;10663;42.714;23.274;2023-02-13T00:31:59;96540.59;;;-1.21;100.00
21011;BME280;10663;42.714;23.274;2023-02-13T00:33:31;96541.44;;;-1.20;100.00
21011;BME280;10663;42.714;23.274;2023-02-13T00:35:02;96541.03;;;-1.25;100.00
21011;BME280;10663;42.714;23.274;2023-02-13T00:36:33;96545.00;;;-1.21;100.00
21011;BME280;10663;42.714;23.274;2023-02-13T00:38:04;96545.25;;;-1.24;100.00
21011;BME280;10663;42.714;23.274;2023-02-13T00:39:35;96546.53;;;-1.28;100.00
21011;BME280;10663;42.714;23.274;2023-02-13T00:41:06;96541.50;;;-1.12;100.00
21011;BME280;10663;42.714;23.274;2023-02-13T00:42:38;96541.28;;;-1.19;100.00
21011;BME280;10663;42.714;23.274;2023-02-13T00:44:10;96545.00;;;-1.21;100.00
21011;BME280;10663;42.714;23.274;2023-02-13T00:45:41;96554.97;;;-1.26;100.00
21011;BME280;10663;42.714;23.274;2023-02-13T00:47:12;96552.97;;;-1.32;100.00
21011;BME280;10663;42.714;23.274;2023-02-13T00:48:44;96551.78;;;-1.38;100.00
21011;BME280;10663;42.714;23.274;2023-02-13T00:50:15;96544.28;;;-1.41;100.00
21011;BME280;10663;42.714;23.274;2023-02-13T00:51:46;96542.09;;;-1.45;100.00
21011;BME280;10663;42.714;23.274;2023-02-13T00:53:19;96547.28;;;-1.45;100.00
21011;BME280;10663;42.714;23.274;2023-02-13T00:54:50;96552.59;;;-1.37;100.00
21011;BME280;10663;42.714;23.274;2023-02-13T00:56:21;96553.25;;;-1.35;100.00
21011;BME280;10663;42.714;23.274;2023-02-13T00:57:52;96554.38;;;-1.38;100.00
21011;BME280;10663;42.714;23.274;2023-02-13T00:59:23;96558.75;;;-1.38;100.00
21011;BME280;10663;42.714;23.274;2023-02-13T01:00:54;96564.47;;;-1.35;100.00
21011;BME280;10663;42.714;23.274;2023-02-13T01:02:25;96565.59;;;-1.37;100.00
21011;BME280;10663;42.714;23.274;2023-02-13T01:03:57;96571.03;;;-1.31;100.00
21011;BME280;10663;42.714;23.274;2023-02-13T01:05:28;96565.84;;;-1.31;100.00
21011;BME280;10663;42.714;23.274;2023-02-13T01:06:59;96564.25;;;-1.41;100.00
21011;BME280;10663;42.714;23.274;2023-02-13T01:08:29;96554.44;;;-1.47;100.00
21011;BME280;10663;42.714;23.274;2023-02-13T01:10:00;96556.34;;;-1.49;100.00
21011;BME280;10663;42.714;23.274;2023-02-13T01:11:31;96557.16;;;-1.49;100.00
21011;BME280;10663;42.714;23.274;2023-02-13T01:13:05;96556.34;;;-1.49;100.00
21011;BME280;10663;42.714;23.274;2023-02-13T01:14:37;96553.31;;;-1.45;100.00
21011;BME280;10663;42.714;23.274;2023-02-13T01:16:07;96549.47;;;-1.41;100.00
21011;BME280;10663;42.714;23.274;2023-02-13T01:17:38;96553.72;;;-1.40;100.00
21011;BME280;10663;42.714;23.274;2023-02-13T01:19:09;96557.53;;;-1.44;100.00
21011;BME280;10663;42.714;23.274;2023-02-13T01:20:41;96561.38;;;-1.38;100.00
21011;BME280;10663;42.714;23.274;2023-02-13T01:22:13;96563.41;;;-1.42;100.00
21011;BME280;10663;42.714;23.274;2023-02-13T01:23:44;96562.47;;;-1.41;100.00
21011;BME280;10663;42.714;23.274;2023-02-13T01:25:15;96560.00;;;-1.42;100.00
21011;BME280;10663;42.714;23.274;2023-02-13T01:26:47;96558.66;;;-1.46;99.98
21011;BME280;10663;42.714;23.274;2023-02-13T01:28:17;96565.78;;;-1.48;100.00
21011;BME280;10663;42.714;23.274;2023-02-13T01:29:48;96561.09;;;-1.45;99.85
21011;BME280;10663;42.714;23.274;2023-02-13T01:31:19;96569.28;;;-1.40;99.85
21011;BME280;10663;42.714;23.274;2023-02-13T01:32:53;96568.34;;;-1.39;99.99
21011;BME280;10663;42.714;23.274;2023-02-13T01:34:24;96563.38;;;-1.32;99.91
21011;BME280;10663;42.714;23.274;2023-02-13T01:35:55;96564.72;;;-1.28;100.00
21011;BME280;10663;42.714;23.274;2023-02-13T01:37:26;96569.25;;;-1.30;99.41
21011;BME280;10663;42.714;23.274;2023-02-13T01:38:58;96570.00;;;-1.20;100.00
21011;BME280;10663;42.714;23.274;2023-02-13T01:40:29;96568.13;;;-1.00;100.00
21011;BME280;10663;42.714;23.274;2023-02-13T01:42:00;96564.69;;;-1.01;99.92
21011;BME280;10663;42.714;23.274;2023-02-13T01:43:47;96570.19;;;-1.04;98.91
21011;BME280;10663;42.714;23.274;2023-02-13T01:46:53;96562.41;;;-0.86;99.73
21011;BME280;10663;42.714;23.274;2023-02-13T01:48:25;96574.22;;;-0.92;98.69
21011;BME280;10663;42.714;23.274;2023-02-13T01:51:36;96573.41;;;-0.92;98.69
21011;BME280;10663;42.714;23.274;2023-02-13T01:54:47;96577.41;;;-0.62;99.40
21011;BME280;10663;42.714;23.274;2023-02-13T01:56:36;96577.41;;;-0.80;97.87
21011;BME280;10663;42.714;23.274;2023-02-13T01:58:11;96575.88;;;-0.73;98.02
21011;BME280;10663;42.714;23.274;2023-02-13T01:59:56;96576.28;;;-0.42;99.52
21011;BME280;10663;42.714;23.274;2023-02-13T02:01:29;96576.25;;;-0.24;99.70
21011;BME280;10663;42.714;23.274;2023-02-13T02:03:08;96581.59;;;-0.26;98.56
21011;BME280;10663;42.714;23.274;2023-02-13T02:04:41;96579.97;;;-0.27;98.08
21011;BME280;10663;42.714;23.274;2023-02-13T02:06:25;96578.22;;;-0.44;97.03
21011;BME280;10663;42.714;23.274;2023-02-13T02:07:57;96570.66;;;-0.55;95.81
21011;BME280;10663;42.714;23.274;2023-02-13T02:09:32;96571.25;;;-0.61;97.31
21011;BME280;10663;42.714;23.274;2023-02-13T02:11:26;96566.56;;;-0.76;97.75
21011;BME280;10663;42.714;23.274;2023-02-13T02:13:16;96567.88;;;-0.89;97.16
21011;BME280;10663;42.714;23.274;2023-02-13T02:14:48;96565.72;;;-1.11;96.85
21011;BME280;10663;42.714;23.274;2023-02-13T02:16:20;96569.34;;;-1.22;97.18
21011;BME280;10663;42.714;23.274;2023-02-13T02:17:51;96572.13;;;-1.33;97.47
21011;BME280;10663;42.714;23.274;2023-02-13T02:20:05;96568.34;;;-1.39;98.08
21011;BME280;10663;42.714;23.274;2023-02-13T02:33:18;96571.16;;;-1.60;100.00
21011;BME280;10663;42.714;23.274;2023-02-13T02:42:01;96582.56;;;-1.43;100.00
21011;BME280;10663;42.714;23.274;2023-02-13T02:50:57;96596.38;;;-1.42;100.00
21011;BME280;10663;42.714;23.274;2023-02-13T02:54:51;96597.63;;;-1.46;100.00
21011;BME280;10663;42.714;23.274;2023-02-13T02:56:39;96605.44;;;-1.46;100.00
21011;BME280;10663;42.714;23.274;2023-02-13T02:58:46;96606.63;;;-1.41;100.00
21011;BME280;10663;42.714;23.274;2023-02-13T03:00:41;96602.34;;;-1.32;100.00
21011;BME280;10663;42.714;23.274;2023-02-13T03:02:47;96596.72;;;-1.28;100.00
21011;BME280;10663;42.714;23.274;2023-02-13T03:04:42;96594.28;;;-1.29;100.00
21011;BME280;10663;42.714;23.274;2023-02-13T03:06:52;96591.69;;;-1.29;100.00
21011;BME280;10663;42.714;23.274;2023-02-13T03:08:27;96592.31;;;-1.27;100.00
21011;BME280;10663;42.714;23.274;2023-02-13T03:10:37;96598.94;;;-1.33;100.00
21011;BME280;10663;42.714;23.274;2023-02-13T03:12:38;96592.53;;;-1.38;100.00
21011;BME280;10663;42.714;23.274;2023-02-13T03:14:30;96597.19;;;-1.42;100.00
21011;BME280;10663;42.714;23.274;2023-02-13T03:16:00;96589.84;;;-1.46;100.00
21011;BME280;10663;42.714;23.274;2023-02-13T03:17:51;96592.03;;;-1.52;100.00
21011;BME280;10663;42.714;23.274;2023-02-13T03:31:47;96606.72;;;-1.33;100.00
21011;BME280;10663;42.714;23.274;2023-02-13T03:35:03;96608.56;;;-1.16;100.00
21011;BME280;10663;42.714;23.274;2023-02-13T03:37:06;96607.00;;;-1.36;100.00
21011;BME280;10663;42.714;23.274;2023-02-13T03:39:30;96601.63;;;-1.25;100.00
21011;BME280;10663;42.714;23.274;2023-02-13T03:41:06;96598.19;;;-1.25;100.00
21011;BME280;10663;42.714;23.274;2023-02-13T03:43:11;96592.50;;;-1.29;100.00
21011;BME280;10663;42.714;23.274;2023-02-13T03:44:54;96596.56;;;-1.26;100.00
21011;BME280;10663;42.714;23.274;2023-02-13T03:46:49;96600.19;;;-1.37;100.00
21011;BME280;10663;42.714;23.274;2023-02-13T03:48:30;96600.34;;;-1.38;100.00
21011;BME280;10663;42.714;23.274;2023-02-13T03:50:24;96594.84;;;-1.35;100.00
21011;BME280;10663;42.714;23.274;2023-02-13T03:52:03;96597.22;;;-1.52;100.00
21011;BME280;10663;42.714;23.274;2023-02-13T03:53:37;96596.28;;;-1.51;100.00
21011;BME280;10663;42.714;23.274;2023-02-13T03:57:01;96602.78;;;-1.37;100.00
21011;BME280;10663;42.714;23.274;2023-02-13T03:58:53;96606.59;;;-1.31;100.00
21011;BME280;10663;42.714;23.274;2023-02-13T04:00:51;96592.31;;;-1.55;100.00
21011;BME280;10663;42.714;23.274;2023-02-13T04:02:28;96597.72;;;-1.66;100.00
21011;BME280;10663;42.714;23.274;2023-02-13T04:04:21;96594.19;;;-1.37;100.00
21011;BME280;10663;42.714;23.274;2023-02-13T04:06:10;96596.19;;;-1.31;100.00
21011;BME280;10663;42.714;23.274;2023-02-13T04:07:42;96606.25;;;-1.46;100.00
21011;BME280;10663;42.714;23.274;2023-02-13T04:09:13;96605.31;;;-1.55;100.00
21011;BME280;10663;42.714;23.274;2023-02-13T04:10:52;96604.06;;;-1.51;100.00
21011;BME280;10663;42.714;23.274;2023-02-13T04:12:54;96602.00;;;-1.47;100.00
21011;BME280;10663;42.714;23.274;2023-02-13T04:14:52;96601.22;;;-1.57;100.00
21011;BME280;10663;42.714;23.274;2023-02-13T04:16:34;96608.47;;;-1.61;100.00
21011;BME280;10663;42.714;23.274;2023-02-13T04:18:20;96601.13;;;-1.65;100.00
21011;BME280;10663;42.714;23.274;2023-02-13T04:19:52;96601.53;;;-1.70;100.00
21011;BME280;10663;42.714;23.274;2023-02-13T04:21:23;96601.53;;;-1.70;100.00
21011;BME280;10663;42.714;23.274;2023-02-13T04:22:54;96611.81;;;-1.78;100.00
21011;BME280;10663;42.714;23.274;2023-02-13T04:24:25;96608.16;;;-1.85;100.00
21011;BME280;10663;42.714;23.274;2023-02-13T04:25:59;96609.25;;;-1.88;100.00
21011;BME280;10663;42.714;23.274;2023-02-13T04:27:31;96608.66;;;-1.81;100.00
21011;BME280;10663;42.714;23.274;2023-02-13T04:29:02;96603.56;;;-1.64;100.00
21011;BME280;10663;42.714;23.274;2023-02-13T04:30:33;96604.09;;;-1.60;100.00
21011;BME280;10663;42.714;23.274;2023-02-13T04:32:04;96610.69;;;-1.66;100.00
21011;BME280;10663;42.714;23.274;2023-02-13T04:33:35;96609.09;;;-1.76;100.00
21011;BME280;10663;42.714;23.274;2023-02-13T04:35:06;96612.19;;;-1.73;100.00
21011;BME280;10663;42.714;23.274;2023-02-13T04:36:36;96608.16;;;-1.85;100.00
21011;BME280;10663;42.714;23.274;2023-02-13T04:38:07;96611.84;;;-1.88;100.00
21011;BME280;10663;42.714;23.274;2023-02-13T04:39:38;96609.13;;;-1.96;100.00
21011;BME280;10663;42.714;23.274;2023-02-13T04:41:09;96602.72;;;-2.01;100.00
21011;BME280;10663;42.714;23.274;2023-02-13T04:42:40;96607.19;;;-1.84;100.00
21011;BME280;10663;42.714;23.274;2023-02-13T04:44:11;96597.72;;;-1.66;100.00
21011;BME280;10663;42.714;23.274;2023-02-13T04:45:41;96592.22;;;-1.63;100.00
21011;BME280;10663;42.714;23.274;2023-02-13T04:47:12;96596.38;;;-1.79;100.00
21011;BME280;10663;42.714;23.274;2023-02-13T04:48:43;96599.81;;;-1.89;100.00
21011;BME280;10663;42.714;23.274;2023-02-13T04:50:14;96611.72;;;-1.96;100.00
21011;BME280;10663;42.714;23.274;2023-02-13T04:51:45;96600.78;;;-1.99;100.00
21011;BME280;10663;42.714;23.274;2023-02-13T04:53:16;96609.25;;;-1.97;100.00
21011;BME280;10663;42.714;23.274;2023-02-13T04:54:46;96613.75;;;-1.90;100.00
21011;BME280;10663;42.714;23.274;2023-02-13T04:56:17;96615.22;;;-1.77;100.00
21011;BME280;10663;42.714;23.274;2023-02-13T04:57:51;96618.91;;;-1.80;100.00
21011;BME280;10663;42.714;23.274;2023-02-13T04:59:22;96615.22;;;-1.77;100.00
21011;BME280;10663;42.714;23.274;2023-02-13T05:00:53;96614.41;;;-1.78;100.00
21011;BME280;10663;42.714;23.274;2023-02-13T05:02:24;96617.44;;;-1.82;100.00
21011;BME280;10663;42.714;23.274;2023-02-13T05:03:55;96625.75;;;-1.79;100.00
21011;BME280;10663;42.714;23.274;2023-02-13T05:05:26;96620.44;;;-1.77;100.00
21011;BME280;10663;42.714;23.274;2023-02-13T05:06:57;96622.63;;;-1.82;100.00
21011;BME280;10663;42.714;23.274;2023-02-13T05:08:27;96632.06;;;-1.91;100.00
21011;BME280;10663;42.714;23.274;2023-02-13T05:09:58;96632.88;;;-1.91;100.00
21011;BME280;10663;42.714;23.274;2023-02-13T05:11:29;96628.94;;;-1.95;100.00
21011;BME280;10663;42.714;23.274;2023-02-13T05:13:00;96621.16;;;-1.95;100.00
21011;BME280;10663;42.714;23.274;2023-02-13T05:14:31;96624.44;;;-2.02;100.00
21011;BME280;10663;42.714;23.274;2023-02-13T05:16:02;96618.56;;;-2.04;100.00
21011;BME280;10663;42.714;23.274;2023-02-13T05:17:33;96622.50;;;-2.00;100.00
21011;BME280;10663;42.714;23.274;2023-02-13T05:19:04;96626.38;;;-2.04;100.00
21011;BME280;10663;42.714;23.274;2023-02-13T05:20:34;96631.94;;;-2.09;100.00
21011;BME280;10663;42.714;23.274;2023-02-13T05:22:05;96635.63;;;-1.92;100.00
21011;BME280;10663;42.714;23.274;2023-02-13T05:23:55;96628.63;;;-1.82;100.00
21011;BME280;10663;42.714;23.274;2023-02-13T05:25:26;96633.28;;;-1.76;100.00
21011;BME280;10663;42.714;23.274;2023-02-13T05:26:57;96638.72;;;-1.69;100.00
21011;BME280;10663;42.714;23.274;2023-02-13T05:28:27;96635.97;;;-1.58;100.00
21011;BME280;10663;42.714;23.274;2023-02-13T05:30:17;96637.91;;;-1.33;99.82
21011;BME280;10663;42.714;23.274;2023-02-13T05:31:56;96636.72;;;-1.11;98.66
21011;BME280;10663;42.714;23.274;2023-02-13T05:33:27;96635.25;;;-0.96;98.04
21011;BME280;10663;42.714;23.274;2023-02-13T05:34:58;96630.59;;;-0.92;96.64
21011;BME280;10663;42.714;23.274;2023-02-13T05:36:29;96638.00;;;-0.97;95.39
21011;BME280;10663;42.714;23.274;2023-02-13T05:38:00;96642.56;;;-1.09;95.09
21011;BME280;10663;42.714;23.274;2023-02-13T05:39:30;96644.78;;;-0.87;95.87
21011;BME280;10663;42.714;23.274;2023-02-13T05:41:01;96647.34;;;-0.77;95.64
21011;BME280;10663;42.714;23.274;2023-02-13T05:42:32;96648.09;;;-0.67;95.54
21011;BME280;10663;42.714;23.274;2023-02-13T05:44:06;96650.94;;;-0.88;94.42
21011;BME280;10663;42.714;23.274;2023-02-13T05:45:37;96647.59;;;-0.98;94.61
21011;BME280;10663;42.714;23.274;2023-02-13T05:47:07;96648.19;;;-1.04;94.91
21011;BME280;10663;42.714;23.274;2023-02-13T05:48:38;96651.06;;;-1.07;94.89
21011;BME280;10663;42.714;23.274;2023-02-13T05:50:10;96649.41;;;-1.08;95.25
21011;BME280;10663;42.714;23.274;2023-02-13T05:51:41;96653.41;;;-1.14;95.12
21011;BME280;10663;42.714;23.274;2023-02-13T05:53:12;96655.06;;;-1.13;95.43
21011;BME280;10663;42.714;23.274;2023-02-13T05:54:43;96653.97;;;-1.10;95.45
21011;BME280;10663;42.714;23.274;2023-02-13T05:56:14;96656.97;;;-1.15;95.38
21011;BME280;10663;42.714;23.274;2023-02-13T05:57:45;96653.16;;;-1.10;95.52
21011;BME280;10663;42.714;23.274;2023-02-13T05:59:16;96652.88;;;-1.17;95.63
21011;BME280;10663;42.714;23.274;2023-02-13T06:00:47;96658.75;;;-1.15;94.92
21011;BME280;10663;42.714;23.274;2023-02-13T06:02:18;96659.44;;;-1.13;94.52
21011;BME280;10663;42.714;23.274;2023-02-13T06:03:49;96652.19;;;-1.09;93.71
21011;BME280;10663;42.714;23.274;2023-02-13T06:05:20;96655.75;;;-1.10;93.29
21011;BME280;10663;42.714;23.274;2023-02-13T06:06:51;96657.22;;;-1.08;93.00
21011;BME280;10663;42.714;23.274;2023-02-13T06:08:22;96662.94;;;-1.04;92.40
21011;BME280;10663;42.714;23.274;2023-02-13T06:09:53;96664.53;;;-0.94;92.96
21011;BME280;10663;42.714;23.274;2023-02-13T06:11:24;96656.25;;;-0.80;93.62
21011;BME280;10663;42.714;23.274;2023-02-13T06:12:55;96661.25;;;-0.68;93.99
21011;BME280;10663;42.714;23.274;2023-02-13T06:14:25;96668.72;;;-0.56;93.97
21011;BME280;10663;42.714;23.274;2023-02-13T06:15:56;96667.28;;;-0.68;92.40
21011;BME280;10663;42.714;23.274;2023-02-13T06:17:27;96669.50;;;-0.73;91.43
21011;BME280;10663;42.714;23.274;2023-02-13T06:18:58;96671.94;;;-0.71;91.37
21011;BME280;10663;42.714;23.274;2023-02-13T06:20:29;96668.16;;;-0.77;91.57
21011;BME280;10663;42.714;23.274;2023-02-13T06:22:00;96669.72;;;-0.66;91.54
21011;BME280;10663;42.714;23.274;2023-02-13T06:23:30;96672.00;;;-0.63;92.06
21011;BME280;10663;42.714;23.274;2023-02-13T06:25:02;96672.78;;;-0.53;91.80
21011;BME280;10663;42.714;23.274;2023-02-13T06:26:33;96672.50;;;-0.50;90.89
21011;BME280;10663;42.714;23.274;2023-02-13T06:28:05;96679.63;;;-0.52;92.03
21011;BME280;10663;42.714;23.274;2023-02-13T06:29:36;96675.03;;;-0.41;92.44
21011;BME280;10663;42.714;23.274;2023-02-13T06:31:07;96679.13;;;-0.38;92.26
21011;BME280;10663;42.714;23.274;2023-02-13T06:32:38;96672.81;;;0.00;94.60
21011;BME280;10663;42.714;23.274;2023-02-13T06:34:09;96670.69;;;0.04;93.36
21011;BME280;10663;42.714;23.274;2023-02-13T06:35:40;96666.22;;;0.14;92.88
21011;BME280;10663;42.714;23.274;2023-02-13T06:37:11;96673.56;;;0.18;91.36
21011;BME280;10663;42.714;23.274;2023-02-13T06:38:42;96679.91;;;0.16;90.10
21011;BME280;10663;42.714;23.274;2023-02-13T06:40:14;96679.19;;;0.06;89.73
21011;BME280;10663;42.714;23.274;2023-02-13T06:41:45;96679.25;;;0.14;89.45
21011;BME280;10663;42.714;23.274;2023-02-13T06:43:16;96682.84;;;-0.05;88.58
21011;BME280;10663;42.714;23.274;2023-02-13T06:44:47;96681.06;;;-0.05;89.19
21011;BME280;10663;42.714;23.274;2023-02-13T06:46:18;96680.41;;;0.19;90.24
21011;BME280;10663;42.714;23.274;2023-02-13T06:47:49;96687.00;;;0.06;89.42
21011;BME280;10663;42.714;23.274;2023-02-13T06:49:21;96681.25;;;0.20;89.48
21011;BME280;10663;42.714;23.274;2023-02-13T06:50:52;96681.00;;;0.31;90.21
21011;BME280;10663;42.714;23.274;2023-02-13T06:52:23;96684.00;;;0.18;88.53
21011;BME280;10663;42.714;23.274;2023-02-13T06:53:53;96677.31;;;0.16;87.55
21011;BME280;10663;42.714;23.274;2023-02-13T06:55:24;96677.59;;;0.13;88.40
21011;BME280;10663;42.714;23.274;2023-02-13T06:56:55;96674.00;;;0.31;89.59
21011;BME280;10663;42.714;23.274;2023-02-13T06:58:26;96676.81;;;-0.06;87.94
21011;BME280;10663;42.714;23.274;2023-02-13T06:59:57;96680.22;;;-0.05;88.11
21011;BME280;10663;42.714;23.274;2023-02-13T07:01:28;96685.44;;;-0.23;88.45
21011;BME280;10663;42.714;23.274;2023-02-13T07:03:03;96681.66;;;-0.11;89.88
21011;BME280;10663;42.714;23.274;2023-02-13T07:04:35;96674.81;;;-0.12;89.02
21011;BME280;10663;42.714;23.274;2023-02-13T07:06:05;96675.81;;;0.13;89.61
21011;BME280;10663;42.714;23.274;2023-02-13T07:07:38;96674.00;;;0.31;89.67
21011;BME280;10663;42.714;23.274;2023-02-13T07:09:09;96676.97;;;0.36;87.71
21011;BME280;10663;42.714;23.274;2023-02-13T07:10:42;96676.34;;;0.17;86.65
21011;BME280;10663;42.714;23.274;2023-02-13T07:12:13;96678.53;;;0.29;87.82
21011;BME280;10663;42.714;23.274;2023-02-13T07:13:44;96680.50;;;0.10;86.90
21011;BME280;10663;42.714;23.274;2023-02-13T07:15:15;96688.94;;;0.04;86.58
21011;BME280;10663;42.714;23.274;2023-02-13T07:16:46;96679.34;;;0.04;86.90
21011;BME280;10663;42.714;23.274;2023-02-13T07:18:17;96678.97;;;-0.01;86.97
21011;BME280;10663;42.714;23.274;2023-02-13T07:19:48;96682.22;;;0.01;87.16
21011;BME280;10663;42.714;23.274;2023-02-13T07:21:19;96680.75;;;-0.02;87.17
21011;BME280;10663;42.714;23.274;2023-02-13T07:22:50;96680.41;;;0.19;88.37
21011;BME280;10663;42.714;23.274;2023-02-13T07:24:20;96687.13;;;0.22;87.29
21011;BME280;10663;42.714;23.274;2023-02-13T07:25:51;96688.16;;;0.11;87.37
21011;BME280;10663;42.714;23.274;2023-02-13T07:27:22;96683.19;;;0.18;87.67
21011;BME280;10663;42.714;23.274;2023-02-13T07:28:53;96691.81;;;0.36;87.84
21011;BME280;10663;42.714;23.274;2023-02-13T07:30:24;96682.16;;;0.54;86.95
21011;BME280;10663;42.714;23.274;2023-02-13T07:31:55;96683.56;;;0.74;87.27
21011;BME280;10663;42.714;23.274;2023-02-13T07:33:26;96686.13;;;0.41;85.56
21011;BME280;10663;42.714;23.274;2023-02-13T07:34:56;96687.38;;;0.54;86.55
21011;BME280;10663;42.714;23.274;2023-02-13T07:36:27;96691.41;;;0.83;87.25
21011;BME280;10663;42.714;23.274;2023-02-13T07:37:58;96683.19;;;0.95;86.30
21011;BME280;10663;42.714;23.274;2023-02-13T07:39:30;96684.31;;;0.93;85.89
21011;BME280;10663;42.714;23.274;2023-02-13T07:41:02;96684.25;;;0.85;85.88
21011;BME280;10663;42.714;23.274;2023-02-13T07:42:33;96686.31;;;0.99;85.64
21011;BME280;10663;42.714;23.274;2023-02-13T07:44:07;96691.06;;;1.11;85.79
21011;BME280;10663;42.714;23.274;2023-02-13T07:45:38;96689.97;;;1.22;85.45
21011;BME280;10663;42.714;23.274;2023-02-13T07:47:09;96681.19;;;1.31;85.56
21011;BME280;10663;42.714;23.274;2023-02-13T07:48:40;96682.03;;;1.32;85.38
21011;BME280;10663;42.714;23.274;2023-02-13T07:50:11;96690.78;;;1.23;85.08
21011;BME280;10663;42.714;23.274;2023-02-13T07:51:42;96680.09;;;1.42;84.77
21011;BME280;10663;42.714;23.274;2023-02-13T07:53:13;96685.84;;;1.45;83.77
21011;BME280;10663;42.714;23.274;2023-02-13T07:54:44;96684.81;;;1.46;83.09
21011;BME280;10663;42.714;23.274;2023-02-13T07:56:17;96679.59;;;1.46;82.57
21011;BME280;10663;42.714;23.274;2023-02-13T07:57:48;96680.81;;;1.68;83.13
21011;BME280;10663;42.714;23.274;2023-02-13T07:59:19;96686.00;;;1.52;83.62
21011;BME280;10663;42.714;23.274;2023-02-13T08:00:50;96688.81;;;1.67;83.35
21011;BME280;10663;42.714;23.274;2023-02-13T08:02:21;96684.09;;;1.70;82.43
21011;BME280;10663;42.714;23.274;2023-02-13T08:03:52;96687.66;;;1.69;82.94
21011;BME280;10663;42.714;23.274;2023-02-13T08:05:23;96691.44;;;1.83;82.47
21011;BME280;10663;42.714;23.274;2023-02-13T08:06:54;96691.44;;;1.75;82.74
21011;BME280;10663;42.714;23.274;2023-02-13T08:08:25;96688.38;;;1.29;83.56
21011;BME280;10663;42.714;23.274;2023-02-13T08:09:56;96690.19;;;1.37;84.77
21011;BME280;10663;42.714;23.274;2023-02-13T08:11:45;96692.53;;;1.56;83.52
21011;BME280;10663;42.714;23.274;2023-02-13T08:13:25;96689.75;;;1.49;83.26
21011;BME280;10663;42.714;23.274;2023-02-13T08:14:56;96688.25;;;1.47;83.52
21011;BME280;10663;42.714;23.274;2023-02-13T08:16:27;96685.72;;;1.63;83.53
21011;BME280;10663;42.714;23.274;2023-02-13T08:17:58;96672.97;;;1.68;83.06
21011;BME280;10663;42.714;23.274;2023-02-13T08:19:29;96683.28;;;1.78;83.34
21011;BME280;10663;42.714;23.274;2023-02-13T08:21:03;96686.19;;;1.75;82.61
21011;BME280;10663;42.714;23.274;2023-02-13T08:22:38;96677.91;;;2.12;81.47
21011;BME280;10663;42.714;23.274;2023-02-13T08:24:10;96681.19;;;2.06;81.32
21011;BME280;10663;42.714;23.274;2023-02-13T08:25:42;96684.63;;;2.14;81.86
21011;BME280;10663;42.714;23.274;2023-02-13T08:27:14;96679.72;;;2.44;79.88
21011;BME280;10663;42.714;23.274;2023-02-13T08:28:45;96679.88;;;2.34;79.14
21011;BME280;10663;42.714;23.274;2023-02-13T08:30:15;96681.34;;;2.37;79.39
21011;BME280;10663;42.714;23.274;2023-02-13T08:31:46;96679.69;;;2.52;79.50
21011;BME280;10663;42.714;23.274;2023-02-13T08:33:17;96681.00;;;2.40;80.75
21011;BME280;10663;42.714;23.274;2023-02-13T08:34:49;96681.19;;;2.14;79.78
21011;BME280;10663;42.714;23.274;2023-02-13T08:36:20;96685.75;;;2.04;80.74
21011;BME280;10663;42.714;23.274;2023-02-13T08:37:51;96688.88;;;1.91;81.19
21011;BME280;10663;42.714;23.274;2023-02-13T08:39:23;96685.44;;;2.15;80.56
21011;BME280;10663;42.714;23.274;2023-02-13T08:40:55;96678.72;;;2.45;79.22
21011;BME280;10663;42.714;23.274;2023-02-13T08:42:26;96685.28;;;2.24;79.94
21011;BME280;10663;42.714;23.274;2023-02-13T08:43:57;96682.16;;;2.53;78.33
21011;BME280;10663;42.714;23.274;2023-02-13T08:45:28;96685.28;;;2.24;80.33
21011;BME280;10663;42.714;23.274;2023-02-13T08:46:59;96676.28;;;2.35;80.27
21011;BME280;10663;42.714;23.274;2023-02-13T08:48:33;96683.63;;;2.40;81.11
21011;BME280;10663;42.714;23.274;2023-02-13T08:50:05;96682.50;;;2.18;79.76
21011;BME280;10663;42.714;23.274;2023-02-13T08:51:36;96682.97;;;2.54;79.38
21011;BME280;10663;42.714;23.274;2023-02-13T08:53:07;96683.28;;;2.59;79.72
21011;BME280;10663;42.714;23.274;2023-02-13T08:54:37;96680.97;;;2.64;78.52
21011;BME280;10663;42.714;23.274;2023-02-13T08:56:09;96679.38;;;2.55;79.26
21011;BME280;10663;42.714;23.274;2023-02-13T08:57:40;96676.09;;;2.61;78.79
21011;BME280;10663;42.714;23.274;2023-02-13T08:59:11;96681.19;;;2.54;78.70